sensor_id;sensor_type;location;lat;lon;timestamp;P1;durP1;ratioP1;P2;durP2;ratioP2
68353;SDS011;55274;43.060;25.618;2023-08-06T00:01:49;7.60;;;4.93;;
68353;SDS011;55274;43.060;25.618;2023-08-06T00:04:15;8.98;;;5.35;;
68353;SDS011;55274;43.060;25.618;2023-08-06T00:06:41;10.48;;;5.30;;
68353;SDS011;55274;43.060;25.618;2023-08-06T00:09:07;11.10;;;5.53;;
68353;SDS011;55274;43.060;25.618;2023-08-06T00:11:33;9.45;;;5.45;;
68353;SDS011;55274;43.060;25.618;2023-08-06T00:13:59;8.73;;;5.40;;
68353;SDS011;55274;43.060;25.618;2023-08-06T00:16:24;8.25;;;5.50;;
68353;SDS011;55274;43.060;25.618;2023-08-06T00:18:50;8.23;;;5.45;;
68353;SDS011;55274;43.060;25.618;2023-08-06T00:21:16;9.60;;;6.53;;
68353;SDS011;55274;43.060;25.618;2023-08-06T00:23:42;11.88;;;6.22;;
68353;SDS011;55274;43.060;25.618;2023-08-06T00:26:07;8.43;;;5.68;;
68353;SDS011;55274;43.060;25.618;2023-08-06T00:28:33;11.85;;;6.18;;
68353;SDS011;55274;43.060;25.618;2023-08-06T00:30:59;12.43;;;5.38;;
68353;SDS011;55274;43.060;25.618;2023-08-06T00:33:25;6.53;;;4.70;;
68353;SDS011;55274;43.060;25.618;2023-08-06T00:35:50;6.60;;;3.45;;
68353;SDS011;55274;43.060;25.618;2023-08-06T00:38:16;6.72;;;3.97;;
68353;SDS011;55274;43.060;25.618;2023-08-06T00:40:42;3.95;;;2.63;;
68353;SDS011;55274;43.060;25.618;2023-08-06T00:43:08;7.32;;;3.30;;
68353;SDS011;55274;43.060;25.618;2023-08-06T00:45:35;8.50;;;3.13;;
68353;SDS011;55274;43.060;25.618;2023-08-06T00:48:03;6.85;;;2.83;;
68353;SDS011;55274;43.060;25.618;2023-08-06T00:50:30;4.40;;;2.30;;
68353;SDS011;55274;43.060;25.618;2023-08-06T00:52:56;3.80;;;1.98;;
68353;SDS011;55274;43.060;25.618;2023-08-06T00:55:22;4.43;;;2.30;;
68353;SDS011;55274;43.060;25.618;2023-08-06T00:57:48;3.75;;;2.05;;
68353;SDS011;55274;43.060;25.618;2023-08-06T01:00:16;4.55;;;2.20;;
68353;SDS011;55274;43.060;25.618;2023-08-06T01:02:42;5.10;;;2.28;;
68353;SDS011;55274;43.060;25.618;2023-08-06T01:05:07;3.45;;;1.70;;
68353;SDS011;55274;43.060;25.618;2023-08-06T01:13:18;3.42;;;2.20;;
68353;SDS011;55274;43.060;25.618;2023-08-06T01:15:55;7.35;;;2.30;;
68353;SDS011;55274;43.060;25.618;2023-08-06T01:18:24;3.97;;;2.10;;
68353;SDS011;55274;43.060;25.618;2023-08-06T01:20:51;3.72;;;2.13;;
68353;SDS011;55274;43.060;25.618;2023-08-06T01:23:17;4.97;;;2.47;;
68353;SDS011;55274;43.060;25.618;2023-08-06T01:28:42;7.05;;;1.55;;
68353;SDS011;55274;43.060;25.618;2023-08-06T01:31:39;3.35;;;1.50;;
68353;SDS011;55274;43.060;25.618;2023-08-06T01:34:13;2.60;;;1.40;;
68353;SDS011;55274;43.060;25.618;2023-08-06T01:36:43;4.57;;;1.45;;
68353;SDS011;55274;43.060;25.618;2023-08-06T01:39:09;9.77;;;1.80;;
68353;SDS011;55274;43.060;25.618;2023-08-06T01:41:35;4.22;;;2.10;;
68353;SDS011;55274;43.060;25.618;2023-08-06T01:44:01;4.05;;;2.28;;
68353;SDS011;55274;43.060;25.618;2023-08-06T01:46:27;4.75;;;2.40;;
68353;SDS011;55274;43.060;25.618;2023-08-06T01:48:52;4.15;;;2.20;;
68353;SDS011;55274;43.060;25.618;2023-08-06T01:51:18;4.20;;;2.55;;
68353;SDS011;55274;43.060;25.618;2023-08-06T01:53:44;3.58;;;2.08;;
68353;SDS011;55274;43.060;25.618;2023-08-06T01:56:09;4.47;;;2.35;;
68353;SDS011;55274;43.060;25.618;2023-08-06T01:58:35;3.20;;;1.92;;
68353;SDS011;55274;43.060;25.618;2023-08-06T02:01:01;3.45;;;1.85;;
68353;SDS011;55274;43.060;25.618;2023-08-06T02:03:27;3.65;;;2.10;;
68353;SDS011;55274;43.060;25.618;2023-08-06T02:05:53;2.88;;;1.80;;
68353;SDS011;55274;43.060;25.618;2023-08-06T02:08:18;3.08;;;1.90;;
68353;SDS011;55274;43.060;25.618;2023-08-06T02:10:44;3.08;;;1.98;;
68353;SDS011;55274;43.060;25.618;2023-08-06T02:13:10;3.90;;;2.20;;
68353;SDS011;55274;43.060;25.618;2023-08-06T02:15:41;3.10;;;1.60;;
68353;SDS011;55274;43.060;25.618;2023-08-06T02:18:08;2.35;;;1.58;;
68353;SDS011;55274;43.060;25.618;2023-08-06T02:20:34;2.17;;;1.60;;
68353;SDS011;55274;43.060;25.618;2023-08-06T02:23:00;3.40;;;1.50;;
68353;SDS011;55274;43.060;25.618;2023-08-06T02:25:26;3.80;;;2.10;;
68353;SDS011;55274;43.060;25.618;2023-08-06T02:27:51;2.25;;;1.50;;
68353;SDS011;55274;43.060;25.618;2023-08-06T02:30:17;2.65;;;1.45;;
68353;SDS011;55274;43.060;25.618;2023-08-06T02:32:43;3.22;;;1.90;;
68353;SDS011;55274;43.060;25.618;2023-08-06T02:35:09;4.72;;;1.70;;
68353;SDS011;55274;43.060;25.618;2023-08-06T02:37:35;4.25;;;1.50;;
68353;SDS011;55274;43.060;25.618;2023-08-06T02:40:01;4.93;;;1.67;;
68353;SDS011;55274;43.060;25.618;2023-08-06T02:42:27;4.00;;;1.77;;
68353;SDS011;55274;43.060;25.618;2023-08-06T02:44:53;6.68;;;1.88;;
68353;SDS011;55274;43.060;25.618;2023-08-06T02:47:21;4.63;;;1.70;;
68353;SDS011;55274;43.060;25.618;2023-08-06T02:49:47;2.78;;;1.60;;
68353;SDS011;55274;43.060;25.618;2023-08-06T02:52:13;2.45;;;1.55;;
68353;SDS011;55274;43.060;25.618;2023-08-06T02:54:39;3.63;;;1.98;;
68353;SDS011;55274;43.060;25.618;2023-08-06T02:57:05;2.95;;;1.58;;
68353;SDS011;55274;43.060;25.618;2023-08-06T02:59:32;2.10;;;1.40;;
68353;SDS011;55274;43.060;25.618;2023-08-06T03:01:58;3.25;;;1.48;;
68353;SDS011;55274;43.060;25.618;2023-08-06T03:04:24;4.47;;;1.70;;
68353;SDS011;55274;43.060;25.618;2023-08-06T03:06:50;4.07;;;1.70;;
68353;SDS011;55274;43.060;25.618;2023-08-06T03:09:16;4.03;;;1.75;;
68353;SDS011;55274;43.060;25.618;2023-08-06T03:11:42;4.03;;;1.80;;
68353;SDS011;55274;43.060;25.618;2023-08-06T03:14:08;2.58;;;1.73;;
68353;SDS011;55274;43.060;25.618;2023-08-06T03:16:34;3.80;;;1.80;;
68353;SDS011;55274;43.060;25.618;2023-08-06T03:19:00;5.30;;;1.60;;
68353;SDS011;55274;43.060;25.618;2023-08-06T03:21:26;3.75;;;1.83;;
68353;SDS011;55274;43.060;25.618;2023-08-06T03:23:52;4.20;;;1.65;;
68353;SDS011;55274;43.060;25.618;2023-08-06T03:26:17;2.60;;;1.50;;
68353;SDS011;55274;43.060;25.618;2023-08-06T03:28:43;3.13;;;1.70;;
68353;SDS011;55274;43.060;25.618;2023-08-06T03:31:09;3.03;;;1.70;;
68353;SDS011;55274;43.060;25.618;2023-08-06T03:33:35;2.80;;;1.70;;
68353;SDS011;55274;43.060;25.618;2023-08-06T03:36:01;3.92;;;1.98;;
68353;SDS011;55274;43.060;25.618;2023-08-06T03:38:27;4.70;;;1.85;;
68353;SDS011;55274;43.060;25.618;2023-08-06T03:40:53;9.68;;;1.98;;
68353;SDS011;55274;43.060;25.618;2023-08-06T03:43:19;5.32;;;1.75;;
68353;SDS011;55274;43.060;25.618;2023-08-06T03:45:45;6.05;;;1.90;;
68353;SDS011;55274;43.060;25.618;2023-08-06T03:48:10;3.20;;;1.70;;
68353;SDS011;55274;43.060;25.618;2023-08-06T03:50:36;4.85;;;1.67;;
68353;SDS011;55274;43.060;25.618;2023-08-06T03:53:03;12.65;;;2.28;;
68353;SDS011;55274;43.060;25.618;2023-08-06T03:55:28;3.05;;;1.67;;
68353;SDS011;55274;43.060;25.618;2023-08-06T03:57:54;2.72;;;1.38;;
68353;SDS011;55274;43.060;25.618;2023-08-06T04:00:20;3.63;;;1.45;;
68353;SDS011;55274;43.060;25.618;2023-08-06T04:02:46;3.00;;;1.50;;
68353;SDS011;55274;43.060;25.618;2023-08-06T04:05:11;2.15;;;1.20;;
68353;SDS011;55274;43.060;25.618;2023-08-06T04:07:37;2.50;;;1.58;;
68353;SDS011;55274;43.060;25.618;2023-08-06T04:10:03;2.88;;;1.67;;
68353;SDS011;55274;43.060;25.618;2023-08-06T04:12:30;3.80;;;1.70;;
68353;SDS011;55274;43.060;25.618;2023-08-06T04:14:58;2.67;;;1.75;;
68353;SDS011;55274;43.060;25.618;2023-08-06T04:17:25;3.88;;;1.52;;
68353;SDS011;55274;43.060;25.618;2023-08-06T04:19:51;2.22;;;1.40;;
68353;SDS011;55274;43.060;25.618;2023-08-06T04:22:18;3.42;;;1.77;;
68353;SDS011;55274;43.060;25.618;2023-08-06T04:24:44;3.70;;;1.40;;
68353;SDS011;55274;43.060;25.618;2023-08-06T04:27:11;3.08;;;1.40;;
68353;SDS011;55274;43.060;25.618;2023-08-06T04:29:38;2.47;;;1.50;;
68353;SDS011;55274;43.060;25.618;2023-08-06T04:32:05;2.15;;;1.45;;
68353;SDS011;55274;43.060;25.618;2023-08-06T04:34:32;2.40;;;1.50;;
68353;SDS011;55274;43.060;25.618;2023-08-06T04:36:58;4.93;;;1.40;;
68353;SDS011;55274;43.060;25.618;2023-08-06T04:39:24;4.55;;;1.40;;
68353;SDS011;55274;43.060;25.618;2023-08-06T04:41:50;3.25;;;1.42;;
68353;SDS011;55274;43.060;25.618;2023-08-06T04:44:16;3.30;;;1.20;;
68353;SDS011;55274;43.060;25.618;2023-08-06T04:46:42;2.25;;;1.50;;
68353;SDS011;55274;43.060;25.618;2023-08-06T04:49:07;2.90;;;1.80;;
68353;SDS011;55274;43.060;25.618;2023-08-06T04:51:33;2.55;;;1.40;;
68353;SDS011;55274;43.060;25.618;2023-08-06T04:53:59;2.58;;;1.77;;
68353;SDS011;55274;43.060;25.618;2023-08-06T04:56:25;3.47;;;1.80;;
68353;SDS011;55274;43.060;25.618;2023-08-06T04:58:51;3.20;;;1.75;;
68353;SDS011;55274;43.060;25.618;2023-08-06T05:01:16;3.60;;;2.22;;
68353;SDS011;55274;43.060;25.618;2023-08-06T05:03:42;3.80;;;2.38;;
68353;SDS011;55274;43.060;25.618;2023-08-06T05:06:08;4.43;;;2.30;;
68353;SDS011;55274;43.060;25.618;2023-08-06T05:08:34;3.92;;;2.00;;
68353;SDS011;55274;43.060;25.618;2023-08-06T05:11:00;2.50;;;2.00;;
68353;SDS011;55274;43.060;25.618;2023-08-06T05:13:25;2.92;;;1.90;;
68353;SDS011;55274;43.060;25.618;2023-08-06T05:15:53;3.72;;;1.40;;
68353;SDS011;55274;43.060;25.618;2023-08-06T05:18:19;3.22;;;1.60;;
68353;SDS011;55274;43.060;25.618;2023-08-06T05:20:45;2.72;;;1.20;;
68353;SDS011;55274;43.060;25.618;2023-08-06T05:23:11;2.05;;;0.90;;
68353;SDS011;55274;43.060;25.618;2023-08-06T05:25:37;2.20;;;1.20;;
68353;SDS011;55274;43.060;25.618;2023-08-06T05:28:03;2.53;;;1.20;;
68353;SDS011;55274;43.060;25.618;2023-08-06T05:30:29;2.60;;;1.52;;
68353;SDS011;55274;43.060;25.618;2023-08-06T05:32:55;2.90;;;1.60;;
68353;SDS011;55274;43.060;25.618;2023-08-06T05:35:21;3.13;;;2.80;;
68353;SDS011;55274;43.060;25.618;2023-08-06T05:37:47;1.65;;;0.85;;
68353;SDS011;55274;43.060;25.618;2023-08-06T05:40:13;1.98;;;1.00;;
68353;SDS011;55274;43.060;25.618;2023-08-06T05:42:40;2.63;;;1.13;;
68353;SDS011;55274;43.060;25.618;2023-08-06T05:45:06;1.52;;;0.70;;
68353;SDS011;55274;43.060;25.618;2023-08-06T05:47:32;3.10;;;0.95;;
68353;SDS011;55274;43.060;25.618;2023-08-06T05:49:58;1.13;;;0.77;;
68353;SDS011;55274;43.060;25.618;2023-08-06T05:52:24;3.00;;;1.08;;
68353;SDS011;55274;43.060;25.618;2023-08-06T05:54:50;2.72;;;0.90;;
68353;SDS011;55274;43.060;25.618;2023-08-06T05:57:16;1.02;;;0.77;;
68353;SDS011;55274;43.060;25.618;2023-08-06T05:59:42;1.20;;;0.82;;
68353;SDS011;55274;43.060;25.618;2023-08-06T06:02:08;2.85;;;0.95;;
68353;SDS011;55274;43.060;25.618;2023-08-06T06:04:33;1.92;;;0.90;;
68353;SDS011;55274;43.060;25.618;2023-08-06T06:06:59;1.55;;;0.98;;
68353;SDS011;55274;43.060;25.618;2023-08-06T06:09:25;1.98;;;1.00;;
68353;SDS011;55274;43.060;25.618;2023-08-06T06:11:51;2.17;;;1.00;;
68353;SDS011;55274;43.060;25.618;2023-08-06T06:14:17;3.90;;;1.17;;
68353;SDS011;55274;43.060;25.618;2023-08-06T06:16:43;1.58;;;1.10;;
68353;SDS011;55274;43.060;25.618;2023-08-06T06:19:10;1.42;;;0.90;;
68353;SDS011;55274;43.060;25.618;2023-08-06T06:21:36;1.85;;;1.05;;
68353;SDS011;55274;43.060;25.618;2023-08-06T06:24:03;1.58;;;0.80;;
68353;SDS011;55274;43.060;25.618;2023-08-06T06:26:29;1.80;;;0.80;;
68353;SDS011;55274;43.060;25.618;2023-08-06T06:28:55;2.08;;;1.50;;
68353;SDS011;55274;43.060;25.618;2023-08-06T06:31:21;2.15;;;1.33;;
68353;SDS011;55274;43.060;25.618;2023-08-06T06:33:47;2.55;;;1.00;;
68353;SDS011;55274;43.060;25.618;2023-08-06T06:36:12;1.85;;;1.00;;
68353;SDS011;55274;43.060;25.618;2023-08-06T06:38:38;2.20;;;1.00;;
68353;SDS011;55274;43.060;25.618;2023-08-06T06:41:04;2.05;;;0.70;;
68353;SDS011;55274;43.060;25.618;2023-08-06T06:43:30;1.70;;;0.80;;
68353;SDS011;55274;43.060;25.618;2023-08-06T06:45:59;1.92;;;1.10;;
68353;SDS011;55274;43.060;25.618;2023-08-06T06:48:26;1.80;;;0.88;;
68353;SDS011;55274;43.060;25.618;2023-08-06T06:50:53;1.08;;;0.82;;
68353;SDS011;55274;43.060;25.618;2023-08-06T06:53:19;1.92;;;0.75;;
68353;SDS011;55274;43.060;25.618;2023-08-06T06:55:45;1.75;;;1.10;;
68353;SDS011;55274;43.060;25.618;2023-08-06T06:58:14;2.63;;;1.02;;
68353;SDS011;55274;43.060;25.618;2023-08-06T07:00:41;0.90;;;0.80;;
68353;SDS011;55274;43.060;25.618;2023-08-06T07:03:07;1.00;;;0.80;;
68353;SDS011;55274;43.060;25.618;2023-08-06T07:05:32;2.00;;;0.95;;
68353;SDS011;55274;43.060;25.618;2023-08-06T07:07:58;1.33;;;0.90;;
68353;SDS011;55274;43.060;25.618;2023-08-06T07:10:25;1.25;;;1.00;;
68353;SDS011;55274;43.060;25.618;2023-08-06T07:12:51;2.70;;;1.17;;
68353;SDS011;55274;43.060;25.618;2023-08-06T07:15:17;2.35;;;1.00;;
68353;SDS011;55274;43.060;25.618;2023-08-06T07:17:43;1.35;;;0.73;;
68353;SDS011;55274;43.060;25.618;2023-08-06T07:20:09;1.88;;;1.15;;
68353;SDS011;55274;43.060;25.618;2023-08-06T07:22:35;1.30;;;1.02;;
68353;SDS011;55274;43.060;25.618;2023-08-06T07:25:01;1.58;;;0.98;;
68353;SDS011;55274;43.060;25.618;2023-08-06T07:27:27;1.30;;;1.10;;
68353;SDS011;55274;43.060;25.618;2023-08-06T07:29:53;1.38;;;1.00;;
68353;SDS011;55274;43.060;25.618;2023-08-06T07:32:18;1.95;;;1.02;;
68353;SDS011;55274;43.060;25.618;2023-08-06T07:34:44;2.15;;;0.93;;
68353;SDS011;55274;43.060;25.618;2023-08-06T07:37:10;3.33;;;1.20;;
68353;SDS011;55274;43.060;25.618;2023-08-06T07:39:35;2.55;;;1.10;;
68353;SDS011;55274;43.060;25.618;2023-08-06T07:42:03;1.90;;;1.33;;
68353;SDS011;55274;43.060;25.618;2023-08-06T07:44:31;2.60;;;1.48;;
68353;SDS011;55274;43.060;25.618;2023-08-06T07:46:56;3.25;;;1.65;;
68353;SDS011;55274;43.060;25.618;2023-08-06T07:49:22;2.42;;;1.70;;
68353;SDS011;55274;43.060;25.618;2023-08-06T07:51:48;2.97;;;1.40;;
68353;SDS011;55274;43.060;25.618;2023-08-06T07:54:14;2.08;;;1.30;;
68353;SDS011;55274;43.060;25.618;2023-08-06T07:56:40;5.35;;;1.38;;
68353;SDS011;55274;43.060;25.618;2023-08-06T07:59:05;2.10;;;1.20;;
68353;SDS011;55274;43.060;25.618;2023-08-06T08:01:31;2.40;;;1.45;;
68353;SDS011;55274;43.060;25.618;2023-08-06T08:03:57;3.67;;;1.20;;
68353;SDS011;55274;43.060;25.618;2023-08-06T08:06:22;2.05;;;1.50;;
68353;SDS011;55274;43.060;25.618;2023-08-06T08:08:48;3.88;;;1.70;;
68353;SDS011;55274;43.060;25.618;2023-08-06T08:11:14;7.00;;;2.00;;
68353;SDS011;55274;43.060;25.618;2023-08-06T08:13:41;6.10;;;2.40;;
68353;SDS011;55274;43.060;25.618;2023-08-06T08:16:07;6.50;;;1.95;;
68353;SDS011;55274;43.060;25.618;2023-08-06T08:18:32;6.03;;;2.10;;
68353;SDS011;55274;43.060;25.618;2023-08-06T08:20:58;3.38;;;1.80;;
68353;SDS011;55274;43.060;25.618;2023-08-06T08:23:24;5.63;;;2.55;;
68353;SDS011;55274;43.060;25.618;2023-08-06T08:25:50;12.30;;;3.40;;
68353;SDS011;55274;43.060;25.618;2023-08-06T08:28:16;24.30;;;3.50;;
68353;SDS011;55274;43.060;25.618;2023-08-06T08:30:42;4.97;;;1.83;;
68353;SDS011;55274;43.060;25.618;2023-08-06T08:33:07;4.15;;;1.70;;
68353;SDS011;55274;43.060;25.618;2023-08-06T08:35:34;4.50;;;1.90;;
68353;SDS011;55274;43.060;25.618;2023-08-06T08:38:01;3.30;;;1.92;;
68353;SDS011;55274;43.060;25.618;2023-08-06T08:40:28;3.60;;;1.70;;
68353;SDS011;55274;43.060;25.618;2023-08-06T08:42:58;4.65;;;2.03;;
68353;SDS011;55274;43.060;25.618;2023-08-06T08:45:26;3.47;;;1.98;;
68353;SDS011;55274;43.060;25.618;2023-08-06T08:47:53;4.88;;;2.28;;
68353;SDS011;55274;43.060;25.618;2023-08-06T08:50:19;4.30;;;2.58;;
68353;SDS011;55274;43.060;25.618;2023-08-06T08:52:46;7.78;;;2.58;;
68353;SDS011;55274;43.060;25.618;2023-08-06T08:55:14;5.53;;;3.60;;
68353;SDS011;55274;43.060;25.618;2023-08-06T08:57:41;5.95;;;3.50;;
68353;SDS011;55274;43.060;25.618;2023-08-06T09:00:08;4.97;;;3.45;;
68353;SDS011;55274;43.060;25.618;2023-08-06T09:02:34;4.50;;;2.92;;
68353;SDS011;55274;43.060;25.618;2023-08-06T09:05:03;3.75;;;2.70;;
68353;SDS011;55274;43.060;25.618;2023-08-06T09:07:41;4.78;;;2.50;;
68353;SDS011;55274;43.060;25.618;2023-08-06T09:10:11;6.07;;;2.63;;
68353;SDS011;55274;43.060;25.618;2023-08-06T09:12:39;4.32;;;2.53;;
68353;SDS011;55274;43.060;25.618;2023-08-06T09:15:05;7.97;;;5.88;;
68353;SDS011;55274;43.060;25.618;2023-08-06T09:17:31;7.07;;;5.20;;
68353;SDS011;55274;43.060;25.618;2023-08-06T09:19:57;11.50;;;6.00;;
68353;SDS011;55274;43.060;25.618;2023-08-06T09:22:24;5.32;;;4.03;;
68353;SDS011;55274;43.060;25.618;2023-08-06T09:24:51;39.00;;;5.10;;
68353;SDS011;55274;43.060;25.618;2023-08-06T09:27:16;7.78;;;5.60;;
68353;SDS011;55274;43.060;25.618;2023-08-06T09:29:43;7.95;;;4.22;;
68353;SDS011;55274;43.060;25.618;2023-08-06T09:32:10;9.48;;;6.82;;
68353;SDS011;55274;43.060;25.618;2023-08-06T09:34:46;5.72;;;3.13;;
68353;SDS011;55274;43.060;25.618;2023-08-06T09:37:12;3.13;;;2.13;;
68353;SDS011;55274;43.060;25.618;2023-08-06T09:39:38;3.35;;;2.20;;
68353;SDS011;55274;43.060;25.618;2023-08-06T09:42:05;4.22;;;2.30;;
68353;SDS011;55274;43.060;25.618;2023-08-06T09:44:32;7.88;;;2.30;;
68353;SDS011;55274;43.060;25.618;2023-08-06T09:47:00;3.75;;;2.47;;
68353;SDS011;55274;43.060;25.618;2023-08-06T09:49:28;3.10;;;2.30;;
68353;SDS011;55274;43.060;25.618;2023-08-06T09:52:10;6.00;;;2.22;;
68353;SDS011;55274;43.060;25.618;2023-08-06T09:54:38;4.85;;;2.22;;
68353;SDS011;55274;43.060;25.618;2023-08-06T09:57:04;11.73;;;2.72;;
68353;SDS011;55274;43.060;25.618;2023-08-06T09:59:30;7.28;;;3.63;;
68353;SDS011;55274;43.060;25.618;2023-08-06T10:01:58;4.20;;;2.97;;
68353;SDS011;55274;43.060;25.618;2023-08-06T10:04:24;3.80;;;2.80;;
68353;SDS011;55274;43.060;25.618;2023-08-06T10:06:50;7.93;;;2.60;;
68353;SDS011;55274;43.060;25.618;2023-08-06T10:09:17;5.68;;;2.40;;
68353;SDS011;55274;43.060;25.618;2023-08-06T10:11:48;4.35;;;3.00;;
68353;SDS011;55274;43.060;25.618;2023-08-06T10:14:28;5.82;;;2.45;;
68353;SDS011;55274;43.060;25.618;2023-08-06T10:16:58;4.38;;;2.72;;
68353;SDS011;55274;43.060;25.618;2023-08-06T10:19:25;3.40;;;2.60;;
68353;SDS011;55274;43.060;25.618;2023-08-06T10:24:47;8.90;;;3.58;;
68353;SDS011;55274;43.060;25.618;2023-08-06T10:27:20;4.45;;;2.78;;
68353;SDS011;55274;43.060;25.618;2023-08-06T10:35:37;3.63;;;2.72;;
68353;SDS011;55274;43.060;25.618;2023-08-06T10:40:42;3.35;;;2.42;;
68353;SDS011;55274;43.060;25.618;2023-08-06T10:45:51;3.42;;;2.55;;
68353;SDS011;55274;43.060;25.618;2023-08-06T10:48:28;4.03;;;2.80;;
68353;SDS011;55274;43.060;25.618;2023-08-06T10:51:07;4.20;;;2.88;;
68353;SDS011;55274;43.060;25.618;2023-08-06T10:53:34;4.97;;;3.38;;
68353;SDS011;55274;43.060;25.618;2023-08-06T10:56:00;8.07;;;4.82;;
68353;SDS011;55274;43.060;25.618;2023-08-06T10:58:30;6.97;;;5.10;;
68353;SDS011;55274;43.060;25.618;2023-08-06T11:00:57;8.18;;;5.47;;
68353;SDS011;55274;43.060;25.618;2023-08-06T11:03:24;7.90;;;2.83;;
68353;SDS011;55274;43.060;25.618;2023-08-06T11:05:51;17.05;;;4.65;;
68353;SDS011;55274;43.060;25.618;2023-08-06T11:08:26;35.83;;;7.13;;
68353;SDS011;55274;43.060;25.618;2023-08-06T11:10:53;12.95;;;5.45;;
68353;SDS011;55274;43.060;25.618;2023-08-06T11:13:20;9.65;;;3.63;;
68353;SDS011;55274;43.060;25.618;2023-08-06T11:15:46;8.10;;;3.58;;
68353;SDS011;55274;43.060;25.618;2023-08-06T11:18:12;6.50;;;3.35;;
68353;SDS011;55274;43.060;25.618;2023-08-06T11:20:38;8.10;;;3.55;;
68353;SDS011;55274;43.060;25.618;2023-08-06T11:23:05;6.88;;;3.10;;
68353;SDS011;55274;43.060;25.618;2023-08-06T11:25:31;5.25;;;2.75;;
68353;SDS011;55274;43.060;25.618;2023-08-06T11:28:01;5.43;;;2.80;;
68353;SDS011;55274;43.060;25.618;2023-08-06T11:30:27;5.20;;;2.88;;
68353;SDS011;55274;43.060;25.618;2023-08-06T11:32:53;7.10;;;3.00;;
68353;SDS011;55274;43.060;25.618;2023-08-06T11:35:18;6.30;;;2.95;;
68353;SDS011;55274;43.060;25.618;2023-08-06T11:37:45;5.57;;;2.65;;
68353;SDS011;55274;43.060;25.618;2023-08-06T11:40:11;6.22;;;2.40;;
68353;SDS011;55274;43.060;25.618;2023-08-06T11:42:39;8.82;;;2.50;;
68353;SDS011;55274;43.060;25.618;2023-08-06T11:45:05;5.22;;;2.38;;
68353;SDS011;55274;43.060;25.618;2023-08-06T11:47:33;6.65;;;2.10;;
68353;SDS011;55274;43.060;25.618;2023-08-06T11:49:59;5.18;;;1.80;;
68353;SDS011;55274;43.060;25.618;2023-08-06T11:52:25;3.72;;;2.05;;
68353;SDS011;55274;43.060;25.618;2023-08-06T11:57:31;4.43;;;2.33;;
68353;SDS011;55274;43.060;25.618;2023-08-06T12:00:06;4.47;;;2.00;;
68353;SDS011;55274;43.060;25.618;2023-08-06T12:02:34;5.75;;;2.17;;
68353;SDS011;55274;43.060;25.618;2023-08-06T12:05:09;3.10;;;2.13;;
68353;SDS011;55274;43.060;25.618;2023-08-06T12:07:38;3.80;;;2.30;;
68353;SDS011;55274;43.060;25.618;2023-08-06T12:10:08;3.30;;;1.85;;
68353;SDS011;55274;43.060;25.618;2023-08-06T12:12:34;4.65;;;2.05;;
68353;SDS011;55274;43.060;25.618;2023-08-06T12:15:00;4.88;;;2.22;;
68353;SDS011;55274;43.060;25.618;2023-08-06T12:17:27;3.25;;;1.90;;
68353;SDS011;55274;43.060;25.618;2023-08-06T12:19:53;4.13;;;2.05;;
68353;SDS011;55274;43.060;25.618;2023-08-06T12:22:18;4.18;;;1.92;;
68353;SDS011;55274;43.060;25.618;2023-08-06T12:24:45;5.43;;;2.17;;
68353;SDS011;55274;43.060;25.618;2023-08-06T12:27:11;5.18;;;2.03;;
68353;SDS011;55274;43.060;25.618;2023-08-06T12:29:40;4.32;;;2.00;;
68353;SDS011;55274;43.060;25.618;2023-08-06T12:32:10;3.63;;;1.95;;
68353;SDS011;55274;43.060;25.618;2023-08-06T12:34:40;2.92;;;1.83;;
68353;SDS011;55274;43.060;25.618;2023-08-06T12:37:07;4.70;;;1.98;;
68353;SDS011;55274;43.060;25.618;2023-08-06T12:39:34;4.40;;;1.92;;
68353;SDS011;55274;43.060;25.618;2023-08-06T12:42:01;9.05;;;2.30;;
68353;SDS011;55274;43.060;25.618;2023-08-06T12:44:27;3.70;;;2.05;;
68353;SDS011;55274;43.060;25.618;2023-08-06T12:46:53;3.42;;;1.80;;
68353;SDS011;55274;43.060;25.618;2023-08-06T12:49:19;3.28;;;1.98;;
68353;SDS011;55274;43.060;25.618;2023-08-06T12:51:48;2.88;;;1.52;;
68353;SDS011;55274;43.060;25.618;2023-08-06T12:54:16;3.28;;;2.05;;
68353;SDS011;55274;43.060;25.618;2023-08-06T12:56:42;2.50;;;1.80;;
68353;SDS011;55274;43.060;25.618;2023-08-06T12:59:08;3.38;;;2.10;;
68353;SDS011;55274;43.060;25.618;2023-08-06T13:01:34;2.72;;;1.70;;
68353;SDS011;55274;43.060;25.618;2023-08-06T13:04:00;5.60;;;2.50;;
68353;SDS011;55274;43.060;25.618;2023-08-06T13:06:26;5.25;;;2.30;;
68353;SDS011;55274;43.060;25.618;2023-08-06T13:08:52;5.35;;;2.95;;
68353;SDS011;55274;43.060;25.618;2023-08-06T13:11:17;3.75;;;2.75;;
68353;SDS011;55274;43.060;25.618;2023-08-06T13:13:44;3.33;;;2.45;;
68353;SDS011;55274;43.060;25.618;2023-08-06T13:16:10;2.50;;;1.90;;
68353;SDS011;55274;43.060;25.618;2023-08-06T13:18:36;2.53;;;2.00;;
68353;SDS011;55274;43.060;25.618;2023-08-06T13:21:01;2.40;;;1.75;;
68353;SDS011;55274;43.060;25.618;2023-08-06T13:23:27;4.03;;;2.05;;
68353;SDS011;55274;43.060;25.618;2023-08-06T13:25:53;3.40;;;2.80;;
68353;SDS011;55274;43.060;25.618;2023-08-06T13:28:19;2.95;;;1.85;;
68353;SDS011;55274;43.060;25.618;2023-08-06T13:30:45;2.85;;;2.47;;
68353;SDS011;55274;43.060;25.618;2023-08-06T13:33:11;3.35;;;2.55;;
68353;SDS011;55274;43.060;25.618;2023-08-06T13:35:37;2.95;;;2.35;;
68353;SDS011;55274;43.060;25.618;2023-08-06T13:38:03;2.42;;;1.52;;
68353;SDS011;55274;43.060;25.618;2023-08-06T13:40:30;3.05;;;1.67;;
68353;SDS011;55274;43.060;25.618;2023-08-06T13:42:57;4.45;;;1.88;;
68353;SDS011;55274;43.060;25.618;2023-08-06T13:45:23;3.92;;;1.48;;
68353;SDS011;55274;43.060;25.618;2023-08-06T13:47:49;3.42;;;2.60;;
68353;SDS011;55274;43.060;25.618;2023-08-06T13:50:15;2.35;;;1.48;;
68353;SDS011;55274;43.060;25.618;2023-08-06T13:52:41;2.47;;;1.73;;
68353;SDS011;55274;43.060;25.618;2023-08-06T13:55:07;3.45;;;2.72;;
68353;SDS011;55274;43.060;25.618;2023-08-06T13:57:34;2.60;;;2.10;;
68353;SDS011;55274;43.060;25.618;2023-08-06T14:00:00;3.70;;;2.50;;
68353;SDS011;55274;43.060;25.618;2023-08-06T14:02:26;2.53;;;2.20;;
68353;SDS011;55274;43.060;25.618;2023-08-06T14:04:54;2.75;;;2.42;;
68353;SDS011;55274;43.060;25.618;2023-08-06T14:07:21;2.85;;;2.05;;
68353;SDS011;55274;43.060;25.618;2023-08-06T14:09:46;4.63;;;2.15;;
68353;SDS011;55274;43.060;25.618;2023-08-06T14:12:13;2.42;;;1.83;;
68353;SDS011;55274;43.060;25.618;2023-08-06T14:14:39;3.38;;;2.00;;
68353;SDS011;55274;43.060;25.618;2023-08-06T14:17:05;4.43;;;1.75;;
68353;SDS011;55274;43.060;25.618;2023-08-06T14:19:30;4.38;;;1.70;;
68353;SDS011;55274;43.060;25.618;2023-08-06T14:21:56;2.17;;;1.77;;
68353;SDS011;55274;43.060;25.618;2023-08-06T14:24:22;2.80;;;1.52;;
68353;SDS011;55274;43.060;25.618;2023-08-06T14:26:48;2.95;;;1.70;;
68353;SDS011;55274;43.060;25.618;2023-08-06T14:29:14;2.95;;;1.45;;
68353;SDS011;55274;43.060;25.618;2023-08-06T14:31:40;3.85;;;1.98;;
68353;SDS011;55274;43.060;25.618;2023-08-06T14:34:06;4.32;;;1.85;;
68353;SDS011;55274;43.060;25.618;2023-08-06T14:36:32;3.47;;;2.20;;
68353;SDS011;55274;43.060;25.618;2023-08-06T14:38:58;2.55;;;1.90;;
68353;SDS011;55274;43.060;25.618;2023-08-06T14:41:23;2.50;;;1.80;;
68353;SDS011;55274;43.060;25.618;2023-08-06T14:43:50;2.22;;;1.60;;
68353;SDS011;55274;43.060;25.618;2023-08-06T14:46:15;2.13;;;1.50;;
68353;SDS011;55274;43.060;25.618;2023-08-06T14:48:41;2.78;;;1.85;;
68353;SDS011;55274;43.060;25.618;2023-08-06T14:51:09;4.75;;;2.00;;
68353;SDS011;55274;43.060;25.618;2023-08-06T14:53:35;2.15;;;1.70;;
68353;SDS011;55274;43.060;25.618;2023-08-06T14:56:01;4.45;;;1.90;;